Time;durP1;ratioP1;P1;durP2;ratioP2;P2;SDS_P1;SDS_P2;PMS_P1;PMS_P2;Temp;Humidity;BMP_temperature;BMP_pressure;BME280_temperature;BME280_humidity;BME280_pressure;Samples;Min_cycle;Max_cycle;Signal;HPM_P1;HPM_P2
2022/04/23 00:00:51;;;;;;;;;;;11.90;99.90;;;;;;5070814;28;19939;-71
2022/04/23 00:03:17;;;;;;;;;;;11.80;99.90;;;;;;5074608;28;19921;-70
2022/04/23 00:05:43;;;;;;;;;;;11.80;99.90;;;;;;5061273;28;19955;-72
2022/04/23 00:08:09;;;;;;;;;;;11.70;99.90;;;;;;5061537;28;19952;-71
2022/04/23 00:10:35;;;;;;;;;;;11.70;99.90;;;;;;5060024;28;19917;-71
2022/04/23 00:13:01;;;;;;;;;;;11.70;99.90;;;;;;5072524;28;19991;-71
2022/04/23 00:15:28;;;;;;;;;;;11.60;99.90;;;;;;5073505;28;19959;-72
2022/04/23 00:17:54;;;;;;;;;;;11.60;99.90;;;;;;5073651;28;19927;-72
2022/04/23 00:20:23;;;;;;;;;;;11.60;99.90;;;;;;5075118;28;19909;-72
2022/04/23 00:22:49;;;;;;;;;;;11.50;99.90;;;;;;5071694;28;19923;-71
2022/04/23 00:25:14;;;;;;;;;;;11.50;99.90;;;;;;5065506;28;19913;-70
2022/04/23 00:27:40;;;;;;;;;;;11.50;99.90;;;;;;5072387;28;19983;-71
2022/04/23 00:30:06;;;;;;;;;;;11.50;99.90;;;;;;5075647;28;20102;-70
2022/04/23 00:32:31;;;;;;;;;;;11.50;99.90;;;;;;5071085;28;19931;-71
2022/04/23 00:34:58;;;;;;;;;;;11.40;99.90;;;;;;5074209;28;19909;-70
2022/04/23 00:37:24;;;;;;;;;;;11.40;99.90;;;;;;5071274;28;19916;-72
2022/04/23 00:39:49;;;;;;;;;;;11.40;99.90;;;;;;5074452;28;19962;-71
2022/04/23 00:42:15;;;;;;;;;;;11.40;99.90;;;;;;5075615;28;19916;-72
2022/04/23 00:44:40;;;;;;;;;;;11.40;99.90;;;;;;5069837;28;19916;-72
2022/04/23 00:47:06;;;;;;;;;;;11.40;99.90;;;;;;5073532;28;19921;-72
2022/04/23 00:49:33;;;;;;;;;;;11.40;99.90;;;;;;5069854;28;20385;-72
2022/04/23 00:51:59;;;;;;;;;;;11.30;99.90;;;;;;5056002;28;19967;-71
2022/04/23 00:54:25;;;;;;;;;;;11.30;99.90;;;;;;5065805;28;19926;-71
2022/04/23 00:56:50;;;;;;;;;;;11.20;99.90;;;;;;5063198;28;19925;-71
2022/04/23 00:59:16;;;;;;;;;;;11.20;99.90;;;;;;5063962;28;19978;-71
2022/04/23 01:01:43;;;;;;;;;;;11.20;99.90;;;;;;5071733;28;19962;-71
2022/04/23 01:04:09;;;;;;;;;;;11.20;99.90;;;;;;5075892;28;19912;-71
2022/04/23 01:06:35;;;;;;;;;;;11.20;99.90;;;;;;5066719;28;19962;-71
2022/04/23 01:09:02;;;;;;;;;;;11.20;99.90;;;;;;5066203;28;20250;-72
2022/04/23 01:11:28;;;;;;;;;;;11.20;99.90;;;;;;5073969;28;19916;-71
2022/04/23 01:13:53;;;;;;;;;;;11.10;99.90;;;;;;5062409;28;19921;-72
2022/04/23 01:16:19;;;;;;;;;;;11.10;99.90;;;;;;5074025;28;20195;-71
2022/04/23 01:18:44;;;;;;;;;;;11.10;99.90;;;;;;5068184;28;20301;-77
2022/04/23 01:21:10;;;;;;;;;;;11.10;99.90;;;;;;5071230;28;20563;-71
2022/04/23 01:23:40;;;;;;;;;;;11.00;99.90;;;;;;5060685;28;19924;-71
2022/04/23 01:26:08;;;;;;;;;;;11.00;99.90;;;;;;5053993;28;19954;-71
2022/04/23 01:28:34;;;;;;;;;;;11.00;99.90;;;;;;5072802;28;19915;-71
2022/04/23 01:30:59;;;;;;;;;;;10.90;99.90;;;;;;5066222;28;19916;-71
2022/04/23 01:33:25;;;;;;;;;;;10.90;99.90;;;;;;5067499;28;20007;-71
2022/04/23 01:35:51;;;;;;;;;;;11.00;99.90;;;;;;5072459;28;19944;-71
2022/04/23 01:38:16;;;;;;;;;;;11.00;99.90;;;;;;5065753;28;19920;-71
2022/04/23 01:40:42;;;;;;;;;;;11.00;99.90;;;;;;5066828;28;20012;-71
2022/04/23 01:43:08;;;;;;;;;;;11.00;99.90;;;;;;5068716;28;19912;-71
2022/04/23 01:45:34;;;;;;;;;;;11.00;99.90;;;;;;5068828;28;19916;-71
2022/04/23 01:48:00;;;;;;;;;;;11.00;99.90;;;;;;5071316;28;19969;-72
2022/04/23 01:50:25;;;;;;;;;;;11.00;99.90;;;;;;5073202;28;19916;-71
2022/04/23 01:52:51;;;;;;;;;;;11.00;99.90;;;;;;5079111;28;20003;-70
2022/04/23 01:55:16;;;;;;;;;;;11.00;99.90;;;;;;5060851;28;19916;-70
2022/04/23 01:57:42;;;;;;;;;;;11.00;99.90;;;;;;5058883;28;20003;-70
2022/04/23 02:00:09;;;;;;;;;;;10.90;99.90;;;;;;5070962;28;20329;-71
2022/04/23 02:02:37;;;;;;;;;;;10.90;99.90;;;;;;5065786;28;19925;-71
2022/04/23 02:05:03;;;;;;;;;;;10.90;99.90;;;;;;5071747;28;19916;-70
2022/04/23 02:07:28;;;;;;;;;;;10.90;99.90;;;;;;5060146;28;20300;-71
2022/04/23 02:09:54;;;;;;;;;;;10.90;99.90;;;;;;5070035;28;19964;-75
2022/04/23 02:12:19;;;;;;;;;;;10.80;99.90;;;;;;5071485;28;20231;-71
2022/04/23 02:14:46;;;;;;;;;;;10.80;99.90;;;;;;5068088;28;20220;-71
2022/04/23 02:17:12;;;;;;;;;;;10.80;99.90;;;;;;5058788;28;19925;-70
2022/04/23 02:19:37;;;;;;;;;;;10.90;99.90;;;;;;5073283;28;19916;-72
2022/04/23 02:22:03;;;;;;;;;;;10.90;99.90;;;;;;5063523;28;19966;-70
2022/04/23 02:24:30;;;;;;;;;;;10.90;99.90;;;;;;5072724;28;20222;-70
2022/04/23 02:26:55;;;;;;;;;;;10.90;99.90;;;;;;5074398;28;19919;-72
2022/04/23 02:29:21;;;;;;;;;;;11.00;99.90;;;;;;5074708;28;19916;-70
2022/04/23 02:31:47;;;;;;;;;;;11.00;99.90;;;;;;5070707;28;19935;-70
2022/04/23 02:34:13;;;;;;;;;;;11.00;99.90;;;;;;5072701;28;19991;-71
2022/04/23 02:36:38;;;;;;;;;;;11.00;99.90;;;;;;5073475;28;19923;-70
2022/04/23 02:39:04;;;;;;;;;;;11.00;99.90;;;;;;5074657;28;19943;-71
2022/04/23 02:41:29;;;;;;;;;;;11.00;99.90;;;;;;5070615;28;19912;-71
2022/04/23 02:43:57;;;;;;;;;;;11.00;99.90;;;;;;5074361;28;19928;-72
2022/04/23 02:46:24;;;;;;;;;;;10.90;99.90;;;;;;5071987;28;19966;-71
2022/04/23 02:48:49;;;;;;;;;;;10.90;99.90;;;;;;5069012;28;20287;-70
2022/04/23 02:51:16;;;;;;;;;;;10.90;99.90;;;;;;5072875;28;19962;-70
2022/04/23 02:53:44;;;;;;;;;;;10.80;99.90;;;;;;5072617;28;20300;-77
2022/04/23 02:56:13;;;;;;;;;;;10.80;99.90;;;;;;5071940;28;19912;-72
2022/04/23 02:58:40;;;;;;;;;;;10.80;99.90;;;;;;5074057;28;20307;-71
2022/04/23 03:01:09;;;;;;;;;;;10.70;99.90;;;;;;5070904;28;19920;-71
2022/04/23 03:03:36;;;;;;;;;;;10.70;99.90;;;;;;5072094;28;19912;-71
2022/04/23 03:06:02;;;;;;;;;;;10.60;99.90;;;;;;5070874;28;20011;-70
2022/04/23 03:08:28;;;;;;;;;;;10.60;99.90;;;;;;5075683;28;19999;-70
2022/04/23 03:10:54;;;;;;;;;;;10.50;99.90;;;;;;5070826;28;19917;-70
2022/04/23 03:13:19;;;;;;;;;;;10.50;99.90;;;;;;5071545;28;19920;-70
2022/04/23 03:15:45;;;;;;;;;;;10.40;99.90;;;;;;5074925;28;19938;-70
2022/04/23 03:18:11;;;;;;;;;;;10.40;99.90;;;;;;5049551;28;19979;-70
2022/04/23 03:20:38;;;;;;;;;;;10.30;99.90;;;;;;5077467;28;19919;-70
2022/04/23 03:23:04;;;;;;;;;;;10.30;99.90;;;;;;5066642;28;19966;-71
2022/04/23 03:25:31;;;;;;;;;;;10.30;99.90;;;;;;5058137;28;19916;-71
2022/04/23 03:27:57;;;;;;;;;;;10.30;99.90;;;;;;5065962;28;20263;-71
2022/04/23 03:30:22;;;;;;;;;;;10.20;99.90;;;;;;5074253;28;20000;-70
2022/04/23 03:32:48;;;;;;;;;;;10.20;99.90;;;;;;5070091;28;19913;-71
2022/04/23 03:35:14;;;;;;;;;;;10.10;99.90;;;;;;5071174;28;19921;-71
2022/04/23 03:37:40;;;;;;;;;;;10.10;99.90;;;;;;5065910;28;19970;-71
2022/04/23 03:40:06;;;;;;;;;;;10.10;99.90;;;;;;5069146;28;19923;-70
2022/04/23 03:42:32;;;;;;;;;;;10.10;99.90;;;;;;5073031;28;19916;-71
2022/04/23 03:44:57;;;;;;;;;;;10.00;99.90;;;;;;5071163;28;20247;-71
2022/04/23 03:47:23;;;;;;;;;;;10.00;99.90;;;;;;5071469;28;19912;-71
2022/04/23 03:49:49;;;;;;;;;;;9.90;99.90;;;;;;5075187;28;19956;-71
2022/04/23 03:52:15;;;;;;;;;;;9.90;99.90;;;;;;5071026;28;19982;-70
2022/04/23 03:54:41;;;;;;;;;;;10.00;99.90;;;;;;5076353;28;19912;-71
2022/04/23 03:57:06;;;;;;;;;;;9.90;99.90;;;;;;5073886;28;20226;-70
2022/04/23 03:59:32;;;;;;;;;;;9.90;99.90;;;;;;5066826;28;20207;-72
2022/04/23 04:02:03;;;;;;;;;;;9.90;99.90;;;;;;5063037;28;20283;-71
2022/04/23 04:04:31;;;;;;;;;;;9.90;99.90;;;;;;5070593;28;19918;-70
2022/04/23 04:06:57;;;;;;;;;;;9.90;99.90;;;;;;5074086;28;19920;-70
2022/04/23 04:09:22;;;;;;;;;;;9.90;99.90;;;;;;5074400;28;19917;-70
2022/04/23 04:12:03;;;;;;;;;;;9.90;99.90;;;;;;5074279;28;20056;-71
2022/04/23 04:14:32;;;;;;;;;;;9.90;99.90;;;;;;5066327;28;21236;-70
2022/04/23 04:16:59;;;;;;;;;;;9.80;99.90;;;;;;5073449;28;20292;-76
2022/04/23 04:19:25;;;;;;;;;;;9.90;99.90;;;;;;5067797;28;19919;-71
2022/04/23 04:21:51;;;;;;;;;;;9.80;99.90;;;;;;5069326;28;20009;-72
2022/04/23 04:24:16;;;;;;;;;;;9.90;99.90;;;;;;5070306;28;20259;-71
2022/04/23 04:26:45;;;;;;;;;;;9.90;99.90;;;;;;5076416;28;19954;-70
2022/04/23 04:29:11;;;;;;;;;;;9.90;99.90;;;;;;5072661;28;19974;-71
2022/04/23 04:31:51;;;;;;;;;;;9.80;99.90;;;;;;5074056;28;19921;-71
2022/04/23 04:34:21;;;;;;;;;;;9.80;99.90;;;;;;5070473;28;20293;-72
2022/04/23 04:36:47;;;;;;;;;;;9.80;99.90;;;;;;5076068;28;19962;-71
2022/04/23 04:39:13;;;;;;;;;;;9.80;99.90;;;;;;5070497;28;19912;-71
2022/04/23 04:41:39;;;;;;;;;;;9.80;99.90;;;;;;5072712;28;19921;-71
2022/04/23 04:44:05;;;;;;;;;;;9.80;99.90;;;;;;5065381;28;19919;-71
2022/04/23 04:46:31;;;;;;;;;;;9.80;99.90;;;;;;5074625;28;19912;-70
2022/04/23 04:48:57;;;;;;;;;;;9.80;99.90;;;;;;5071488;28;19932;-76
2022/04/23 04:51:22;;;;;;;;;;;9.80;99.90;;;;;;5073882;28;20321;-72
2022/04/23 04:53:48;;;;;;;;;;;9.80;99.90;;;;;;5070838;28;20219;-70
2022/04/23 04:56:14;;;;;;;;;;;9.90;99.90;;;;;;5073728;28;19920;-72
2022/04/23 04:58:43;;;;;;;;;;;9.80;99.90;;;;;;5069510;28;19908;-72
2022/04/23 05:01:09;;;;;;;;;;;9.80;99.90;;;;;;5072272;28;19920;-71
2022/04/23 05:03:35;;;;;;;;;;;9.90;99.90;;;;;;5073319;28;19919;-71
2022/04/23 05:06:01;;;;;;;;;;;9.90;99.90;;;;;;5072145;28;19916;-71
2022/04/23 05:08:26;;;;;;;;;;;9.90;99.90;;;;;;5074442;28;19966;-70
2022/04/23 05:10:52;;;;;;;;;;;9.90;99.90;;;;;;5071759;28;19932;-78
2022/04/23 05:13:17;;;;;;;;;;;9.90;99.90;;;;;;5065177;28;19912;-71
2022/04/23 05:15:45;;;;;;;;;;;10.00;99.90;;;;;;5055541;28;19909;-75
2022/04/23 05:18:10;;;;;;;;;;;10.00;99.90;;;;;;5070359;28;19931;-71
2022/04/23 05:20:36;;;;;;;;;;;10.00;99.90;;;;;;5074385;28;19912;-71
2022/04/23 05:23:02;;;;;;;;;;;10.10;99.90;;;;;;5071780;28;19995;-71
2022/04/23 05:25:27;;;;;;;;;;;10.10;99.90;;;;;;5058568;28;20303;-72
2022/04/23 05:27:53;;;;;;;;;;;10.10;99.90;;;;;;5070746;28;20364;-71
2022/04/23 05:30:18;;;;;;;;;;;10.20;99.90;;;;;;5073069;28;20263;-71
2022/04/23 05:32:44;;;;;;;;;;;10.20;99.90;;;;;;5072018;28;20219;-72
2022/04/23 05:35:09;;;;;;;;;;;10.20;99.90;;;;;;5069617;28;19954;-72
2022/04/23 05:37:35;;;;;;;;;;;10.30;99.90;;;;;;5069367;28;19916;-71
2022/04/23 05:40:00;;;;;;;;;;;10.30;99.90;;;;;;5067325;28;19917;-71
2022/04/23 05:42:26;;;;;;;;;;;10.40;99.90;;;;;;5077073;28;20011;-71
2022/04/23 05:44:52;;;;;;;;;;;10.40;99.90;;;;;;5073075;28;19920;-72
2022/04/23 05:47:17;;;;;;;;;;;10.40;99.90;;;;;;5078459;28;19908;-71
2022/04/23 05:49:43;;;;;;;;;;;10.40;99.90;;;;;;5075167;28;20394;-71
2022/04/23 05:52:08;;;;;;;;;;;10.50;99.90;;;;;;5076066;28;20011;-72
2022/04/23 05:54:34;;;;;;;;;;;10.50;99.90;;;;;;5075809;28;20215;-72
2022/04/23 05:57:00;;;;;;;;;;;10.50;99.90;;;;;;5075844;28;19923;-72
2022/04/23 05:59:28;;;;;;;;;;;10.50;99.90;;;;;;5078051;28;20061;-79
2022/04/23 06:01:55;;;;;;;;;;;10.60;99.90;;;;;;5072297;28;19939;-71
2022/04/23 06:04:20;;;;;;;;;;;10.60;99.90;;;;;;5076326;28;20011;-72
2022/04/23 06:06:46;;;;;;;;;;;10.60;99.90;;;;;;5075535;28;19924;-71
2022/04/23 06:09:12;;;;;;;;;;;10.60;99.90;;;;;;5076060;28;19908;-72
2022/04/23 06:11:39;;;;;;;;;;;10.70;99.90;;;;;;5076955;28;19942;-72
2022/04/23 06:14:04;;;;;;;;;;;10.70;99.90;;;;;;5074406;28;19920;-72
2022/04/23 06:16:30;;;;;;;;;;;10.70;99.90;;;;;;5073942;28;19919;-72
2022/04/23 06:18:56;;;;;;;;;;;10.70;99.90;;;;;;5074530;28;19955;-72
2022/04/23 06:21:21;;;;;;;;;;;10.80;99.90;;;;;;5076645;28;19920;-71
2022/04/23 06:23:47;;;;;;;;;;;10.80;99.90;;;;;;5078110;28;19913;-71
2022/04/23 06:26:12;;;;;;;;;;;10.80;99.90;;;;;;5071263;28;19913;-72
2022/04/23 06:28:38;;;;;;;;;;;10.80;99.90;;;;;;5070357;28;19913;-72
2022/04/23 06:31:03;;;;;;;;;;;10.90;99.90;;;;;;5077737;28;19919;-71
2022/04/23 06:33:29;;;;;;;;;;;10.90;99.90;;;;;;5077609;28;19954;-72
2022/04/23 06:35:54;;;;;;;;;;;11.00;99.90;;;;;;5076023;28;20184;-76
2022/04/23 06:38:20;;;;;;;;;;;11.00;99.90;;;;;;5077455;28;20007;-71
2022/04/23 06:40:47;;;;;;;;;;;11.10;99.90;;;;;;5077848;28;19917;-72
2022/04/23 06:43:13;;;;;;;;;;;11.10;99.90;;;;;;5069105;28;19909;-72
2022/04/23 06:45:39;;;;;;;;;;;11.20;99.90;;;;;;5086322;28;19916;-71
2022/04/23 06:48:05;;;;;;;;;;;11.20;99.90;;;;;;5077325;28;20387;-77
2022/04/23 06:50:31;;;;;;;;;;;11.30;99.90;;;;;;5056528;28;20003;-72
2022/04/23 06:52:58;;;;;;;;;;;11.20;99.90;;;;;;5049969;28;19931;-72
2022/04/23 06:55:23;;;;;;;;;;;11.30;99.90;;;;;;5076232;28;19928;-72
2022/04/23 06:57:49;;;;;;;;;;;11.40;99.90;;;;;;5072119;28;19924;-72
2022/04/23 07:00:15;;;;;;;;;;;11.40;99.90;;;;;;5071415;28;19920;-70
2022/04/23 07:02:40;;;;;;;;;;;11.50;99.90;;;;;;5074930;28;19920;-71
2022/04/23 07:05:06;;;;;;;;;;;11.60;99.90;;;;;;5076138;28;20219;-72
2022/04/23 07:07:33;;;;;;;;;;;11.80;99.90;;;;;;5076329;28;20322;-72
2022/04/23 07:09:59;;;;;;;;;;;12.00;99.90;;;;;;5075752;28;19916;-72
2022/04/23 07:12:25;;;;;;;;;;;12.20;99.90;;;;;;5072933;28;19931;-70
2022/04/23 07:14:51;;;;;;;;;;;12.20;99.90;;;;;;5076751;28;20179;-72
2022/04/23 07:17:22;;;;;;;;;;;12.50;99.90;;;;;;5074789;28;19978;-78
2022/04/23 07:19:48;;;;;;;;;;;12.60;99.90;;;;;;5075533;28;19944;-73
2022/04/23 07:22:13;;;;;;;;;;;12.60;99.90;;;;;;5072917;28;19958;-73
2022/04/23 07:24:39;;;;;;;;;;;12.50;99.90;;;;;;5074845;28;19913;-74
2022/04/23 07:27:05;;;;;;;;;;;12.80;99.90;;;;;;5074356;28;19970;-72
2022/04/23 07:29:30;;;;;;;;;;;12.80;99.90;;;;;;5071621;28;19913;-71
2022/04/23 07:31:57;;;;;;;;;;;12.70;99.90;;;;;;5062285;28;19917;-75
2022/04/23 07:39:51;;;;;;;;;;;13.10;99.90;;;;;;5074625;28;20537;-73
2022/04/23 07:42:17;;;;;;;;;;;13.10;99.90;;;;;;5075686;28;19916;-71
2022/04/23 07:44:43;;;;;;;;;;;13.20;99.90;;;;;;5066970;28;20296;-73
2022/04/23 07:47:09;;;;;;;;;;;13.40;99.90;;;;;;5071079;28;19916;-72
2022/04/23 07:49:34;;;;;;;;;;;13.30;99.90;;;;;;5063341;28;19921;-72
2022/04/23 07:52:00;;;;;;;;;;;13.40;99.90;;;;;;5072770;28;19919;-73
2022/04/23 07:54:25;;;;;;;;;;;13.60;99.90;;;;;;5076577;28;19912;-81
2022/04/23 07:56:51;;;;;;;;;;;13.60;99.90;;;;;;5072422;28;20007;-72
2022/04/23 07:59:16;;;;;;;;;;;13.40;99.90;;;;;;5075012;28;19966;-73
2022/04/23 08:01:42;;;;;;;;;;;13.10;99.90;;;;;;5073969;28;20015;-78
2022/04/23 08:04:08;;;;;;;;;;;13.00;99.90;;;;;;5073837;28;20334;-73
2022/04/23 08:06:33;;;;;;;;;;;13.10;99.90;;;;;;5074178;28;20004;-74
2022/04/23 08:09:00;;;;;;;;;;;13.40;99.90;;;;;;5076445;28;19912;-72
2022/04/23 08:11:26;;;;;;;;;;;13.60;99.90;;;;;;5074037;28;19923;-78
2022/04/23 08:13:52;;;;;;;;;;;13.90;99.90;;;;;;5076496;28;19913;-73
2022/04/23 08:16:17;;;;;;;;;;;13.80;99.90;;;;;;5069324;28;19917;-72
2022/04/23 08:18:43;;;;;;;;;;;14.00;99.90;;;;;;5056075;28;20219;-73
2022/04/23 08:21:09;;;;;;;;;;;14.00;99.90;;;;;;5064767;28;19973;-71
2022/04/23 08:23:35;;;;;;;;;;;14.00;99.90;;;;;;5062507;28;20001;-71
2022/04/23 08:26:02;;;;;;;;;;;14.30;99.90;;;;;;5072828;28;19963;-74
2022/04/23 08:31:15;;;;;;;;;;;14.40;99.90;;;;;;5066870;28;19924;-72
2022/04/23 08:33:59;;;;;;;;;;;14.40;99.90;;;;;;5076156;28;19915;-72
2022/04/23 08:36:26;;;;;;;;;;;14.40;99.90;;;;;;5073381;28;19912;-72
2022/04/23 08:38:53;;;;;;;;;;;14.40;99.90;;;;;;5075254;28;19962;-72
2022/04/23 08:41:19;;;;;;;;;;;14.70;99.90;;;;;;5067823;28;19913;-73
2022/04/23 08:43:45;;;;;;;;;;;14.50;99.90;;;;;;5070176;28;20306;-72
2022/04/23 08:46:11;;;;;;;;;;;14.60;99.90;;;;;;5073221;28;20011;-72
2022/04/23 08:48:38;;;;;;;;;;;14.60;99.90;;;;;;5074584;28;19912;-73
2022/04/23 08:51:05;;;;;;;;;;;14.60;99.90;;;;;;5073280;28;20053;-72
2022/04/23 08:53:32;;;;;;;;;;;14.80;99.90;;;;;;5074493;28;19909;-72
2022/04/23 08:55:57;;;;;;;;;;;14.60;99.90;;;;;;5072892;28;20291;-73
2022/04/23 08:58:24;;;;;;;;;;;14.80;99.90;;;;;;5071071;28;19935;-72
2022/04/23 09:00:49;;;;;;;;;;;14.40;99.90;;;;;;5072835;28;20426;-72
2022/04/23 09:03:16;;;;;;;;;;;14.50;99.90;;;;;;5073583;28;19999;-72
2022/04/23 09:05:43;;;;;;;;;;;14.80;99.90;;;;;;5070607;28;19935;-73
2022/04/23 09:08:09;;;;;;;;;;;14.70;99.90;;;;;;5073409;28;20329;-72
2022/04/23 09:10:44;;;;;;;;;;;14.70;99.90;;;;;;5074217;28;19959;-74
2022/04/23 09:13:10;;;;;;;;;;;14.70;99.90;;;;;;5069481;28;19924;-72
2022/04/23 09:24:08;;;;;;;;;;;15.00;99.90;;;;;;5064070;28;20016;-78
2022/04/23 09:26:34;;;;;;;;;;;15.20;99.90;;;;;;5073828;28;19912;-73
2022/04/23 09:29:11;;;;;;;;;;;14.90;99.90;;;;;;5073055;28;20086;-72
2022/04/23 09:31:36;;;;;;;;;;;14.90;99.90;;;;;;5074552;28;19924;-72
2022/04/23 09:34:13;;;;;;;;;;;15.00;99.90;;;;;;5073370;28;19913;-72
2022/04/23 09:36:49;;;;;;;;;;;14.90;99.90;;;;;;5073336;28;19912;-73
2022/04/23 09:39:15;;;;;;;;;;;14.90;99.90;;;;;;5075495;28;19917;-72
2022/04/23 09:41:41;;;;;;;;;;;15.10;99.90;;;;;;5070117;28;19912;-72
2022/04/23 09:44:07;;;;;;;;;;;15.10;99.90;;;;;;5075253;28;20299;-72
2022/04/23 09:46:46;;;;;;;;;;;15.20;99.90;;;;;;5060373;28;19913;-73
2022/04/23 09:49:12;;;;;;;;;;;15.20;99.90;;;;;;5062912;28;19983;-72
2022/04/23 09:51:38;;;;;;;;;;;15.30;99.90;;;;;;5058609;28;19966;-73
2022/04/23 09:54:03;;;;;;;;;;;15.70;99.90;;;;;;5048245;28;19920;-72
2022/04/23 09:56:29;;;;;;;;;;;15.70;99.90;;;;;;5063839;28;19961;-72
2022/04/23 09:58:55;;;;;;;;;;;15.50;99.90;;;;;;5070822;28;20608;-72
2022/04/23 10:01:21;;;;;;;;;;;15.60;99.90;;;;;;5066495;28;19969;-73
2022/04/23 10:03:51;;;;;;;;;;;16.00;99.90;;;;;;5073729;28;19951;-76
2022/04/23 10:06:21;;;;;;;;;;;15.90;99.90;;;;;;5073149;28;19965;-72
2022/04/23 10:08:51;;;;;;;;;;;16.00;99.90;;;;;;5074213;28;19999;-73
2022/04/23 10:11:22;;;;;;;;;;;16.20;99.90;;;;;;5066468;28;19917;-74
2022/04/23 10:13:50;;;;;;;;;;;16.20;99.90;;;;;;5070075;28;19908;-72
2022/04/23 10:16:17;;;;;;;;;;;16.20;99.90;;;;;;5071354;28;19917;-71
2022/04/23 10:18:43;;;;;;;;;;;16.10;99.90;;;;;;5073358;28;19920;-72
2022/04/23 10:21:10;;;;;;;;;;;16.10;99.90;;;;;;5070607;28;19919;-73
2022/04/23 10:23:58;;;;;;;;;;;16.40;99.90;;;;;;5074180;28;19908;-74
2022/04/23 10:26:43;;;;;;;;;;;16.50;99.90;;;;;;5054535;28;19912;-72
2022/04/23 10:29:09;;;;;;;;;;;16.20;99.90;;;;;;5064620;28;19913;-73
2022/04/23 10:31:35;;;;;;;;;;;16.40;99.90;;;;;;5070732;28;19955;-72
2022/04/23 10:34:01;;;;;;;;;;;16.90;99.90;;;;;;5070228;28;19951;-72
2022/04/23 10:36:27;;;;;;;;;;;16.90;99.90;;;;;;5062626;28;20587;-72
2022/04/23 10:39:11;;;;;;;;;;;16.60;99.90;;;;;;5069922;28;19962;-71
2022/04/23 10:41:36;;;;;;;;;;;16.60;99.90;;;;;;5087353;28;19920;-77
2022/04/23 10:44:03;;;;;;;;;;;16.80;99.90;;;;;;5072480;28;19913;-72
2022/04/23 10:46:37;;;;;;;;;;;17.40;99.90;;;;;;5071703;28;19912;-74
2022/04/23 10:49:19;;;;;;;;;;;17.80;99.90;;;;;;5070174;28;19982;-74
2022/04/23 10:51:55;;;;;;;;;;;18.30;99.20;;;;;;5065955;28;19931;-73
2022/04/23 10:54:41;;;;;;;;;;;18.00;99.90;;;;;;5066481;28;19916;-73
2022/04/23 10:57:09;;;;;;;;;;;17.90;99.30;;;;;;5072504;28;19924;-72
2022/04/23 10:59:45;;;;;;;;;;;18.00;99.90;;;;;;5070872;28;19928;-72
2022/04/23 11:02:28;;;;;;;;;;;17.80;99.90;;;;;;5069694;28;20283;-73
2022/04/23 11:12:14;;;;;;;;;;;18.00;99.90;;;;;;5071398;28;20208;-77
2022/04/23 11:13:29;;;;;;;;;;;17.40;99.90;;;;;;5072676;28;20405;-73
2022/04/23 11:16:21;;;;;;;;;;;17.50;99.90;;;;;;5072448;28;20197;-73
2022/04/23 11:18:50;;;;;;;;;;;17.90;99.90;;;;;;5070300;28;19978;-74
2022/04/23 11:21:15;;;;;;;;;;;18.20;99.90;;;;;;5054375;28;20250;-73
2022/04/23 11:23:45;;;;;;;;;;;18.50;99.40;;;;;;5070074;28;19915;-74
2022/04/23 11:26:13;;;;;;;;;;;18.80;99.70;;;;;;5073543;28;19963;-74
2022/04/23 11:28:40;;;;;;;;;;;18.90;99.30;;;;;;5072152;28;20229;-72
2022/04/23 11:31:10;;;;;;;;;;;18.90;98.90;;;;;;5072931;28;20243;-73
2022/04/23 11:33:36;;;;;;;;;;;19.00;99.40;;;;;;5066454;28;19920;-73
2022/04/23 11:36:02;;;;;;;;;;;18.90;98.30;;;;;;5059758;28;19995;-76
2022/04/23 11:38:28;;;;;;;;;;;18.80;97.30;;;;;;5079741;28;19979;-72
2022/04/23 11:40:54;;;;;;;;;;;18.80;98.30;;;;;;5070746;28;19932;-73
2022/04/23 11:43:33;;;;;;;;;;;18.80;98.20;;;;;;5073048;28;20246;-73
2022/04/23 11:46:02;;;;;;;;;;;19.00;97.80;;;;;;5071725;28;19927;-76
2022/04/23 11:48:28;;;;;;;;;;;19.20;96.00;;;;;;5072385;28;19952;-76
2022/04/23 11:51:06;;;;;;;;;;;19.00;96.10;;;;;;5071958;28;19920;-75
2022/04/23 11:53:52;;;;;;;;;;;18.80;97.80;;;;;;5062115;28;19913;-75
2022/04/23 11:56:22;;;;;;;;;;;18.70;97.60;;;;;;5086805;28;20605;-74
2022/04/23 11:58:48;;;;;;;;;;;18.90;98.40;;;;;;5061387;28;19990;-76
2022/04/23 12:01:13;;;;;;;;;;;19.20;96.90;;;;;;5063089;28;19917;-74
2022/04/23 12:03:52;;;;;;;;;;;18.70;98.40;;;;;;5072920;28;20003;-75
2022/04/23 12:06:17;;;;;;;;;;;18.40;99.10;;;;;;5071475;28;20015;-75
2022/04/23 12:08:43;;;;;;;;;;;18.60;98.50;;;;;;5071699;28;19994;-75
2022/04/23 12:11:19;;;;;;;;;;;19.00;97.60;;;;;;5069369;28;19926;-73
2022/04/23 12:13:47;;;;;;;;;;;18.80;97.10;;;;;;5072278;28;19923;-74
2022/04/23 12:16:12;;;;;;;;;;;18.80;96.00;;;;;;5052590;28;19916;-74
2022/04/23 12:18:38;;;;;;;;;;;19.10;97.50;;;;;;5078288;28;20388;-75
2022/04/23 12:21:07;;;;;;;;;;;19.00;97.50;;;;;;5053548;28;19928;-74
2022/04/23 12:23:39;;;;;;;;;;;18.60;97.40;;;;;;5071938;28;20015;-74
2022/04/23 12:26:08;;;;;;;;;;;18.60;97.80;;;;;;5072275;28;19962;-74
2022/04/23 12:42:25;;;;;;;;;;;19.40;95.30;;;;;;5064669;28;19928;-74
2022/04/23 12:44:52;;;;;;;;;;;19.20;96.50;;;;;;5064805;28;19916;-74
2022/04/23 12:47:34;;;;;;;;;;;19.70;96.80;;;;;;5067456;28;20015;-75
2022/04/23 12:50:07;;;;;;;;;;;19.80;95.40;;;;;;5070585;28;19966;-75
2022/04/23 12:52:45;;;;;;;;;;;19.30;96.20;;;;;;5068471;28;20628;-74
2022/04/23 12:55:25;;;;;;;;;;;19.20;96.00;;;;;;5069198;28;19916;-74
2022/04/23 12:57:54;;;;;;;;;;;19.30;95.30;;;;;;5069726;28;19943;-74
2022/04/23 13:00:20;;;;;;;;;;;19.20;95.70;;;;;;5066963;28;20525;-75
2022/04/23 13:02:49;;;;;;;;;;;19.30;97.10;;;;;;5067676;28;19913;-75
2022/04/23 13:05:15;;;;;;;;;;;18.90;95.40;;;;;;5068906;28;19921;-75
2022/04/23 13:10:25;;;;;;;;;;;18.50;95.70;;;;;;5067836;28;19982;-74
2022/04/23 13:12:50;;;;;;;;;;;18.50;97.50;;;;;;5070083;28;20319;-74
2022/04/23 13:15:16;;;;;;;;;;;18.90;96.90;;;;;;5069574;28;19947;-78
2022/04/23 13:17:42;;;;;;;;;;;19.10;97.20;;;;;;5068411;28;19925;-76
2022/04/23 13:20:11;;;;;;;;;;;19.40;97.20;;;;;;5069625;28;19916;-78
2022/04/23 13:22:37;;;;;;;;;;;18.90;95.90;;;;;;5070894;28;19927;-81
2022/04/23 13:25:04;;;;;;;;;;;18.70;96.40;;;;;;5071199;28;19913;-81
2022/04/23 13:27:30;;;;;;;;;;;18.20;97.60;;;;;;5069650;28;20318;-79
2022/04/23 13:29:56;;;;;;;;;;;18.00;98.60;;;;;;5058497;28;19924;-77
2022/04/23 13:32:21;;;;;;;;;;;18.10;96.90;;;;;;5052519;28;20027;-80
2022/04/23 13:34:47;;;;;;;;;;;18.00;97.10;;;;;;5062802;28;19935;-81
2022/04/23 13:37:12;;;;;;;;;;;18.20;98.10;;;;;;5067458;28;20259;-80
2022/04/23 13:39:38;;;;;;;;;;;18.40;98.50;;;;;;5068319;28;19970;-77
2022/04/23 13:42:04;;;;;;;;;;;18.30;97.60;;;;;;5070257;28;19969;-80
2022/04/23 13:44:30;;;;;;;;;;;17.70;97.10;;;;;;5069617;28;19912;-82
2022/04/23 13:46:55;;;;;;;;;;;17.60;97.80;;;;;;5069933;28;20211;-79
2022/04/23 13:49:22;;;;;;;;;;;17.50;97.80;;;;;;5069201;28;19916;-81
2022/04/23 13:51:47;;;;;;;;;;;17.70;97.60;;;;;;5071182;28;19924;-76
2022/04/23 13:54:13;;;;;;;;;;;17.70;99.20;;;;;;5071001;28;19912;-80
2022/04/23 13:56:38;;;;;;;;;;;17.50;98.10;;;;;;5056663;28;19913;-78
2022/04/23 13:59:04;;;;;;;;;;;17.40;98.40;;;;;;5070773;28;20307;-79
2022/04/23 14:01:29;;;;;;;;;;;17.50;98.30;;;;;;5071229;28;19916;-80
2022/04/23 14:12:12;;;;;;;;;;;18.10;97.20;;;;;;5067172;28;19971;-83
2022/04/23 14:14:37;;;;;;;;;;;18.30;98.90;;;;;;5061054;28;20383;-78
2022/04/23 14:17:03;;;;;;;;;;;18.50;97.40;;;;;;5055370;28;19936;-78
2022/04/23 14:19:28;;;;;;;;;;;18.50;97.00;;;;;;5064762;28;20215;-82
2022/04/23 14:21:54;;;;;;;;;;;18.50;96.70;;;;;;5075049;28;19912;-81
2022/04/23 14:24:19;;;;;;;;;;;18.50;96.90;;;;;;5073006;28;19923;-80
2022/04/23 14:26:45;;;;;;;;;;;18.50;96.90;;;;;;5073710;28;19916;-83
2022/04/23 14:29:10;;;;;;;;;;;18.60;97.80;;;;;;5073333;28;19923;-81
2022/04/23 14:31:36;;;;;;;;;;;18.50;96.30;;;;;;5053501;28;19925;-79
2022/04/23 14:34:02;;;;;;;;;;;18.60;97.50;;;;;;5072949;28;20053;-83
2022/04/23 14:36:29;;;;;;;;;;;18.80;96.50;;;;;;5072579;28;19924;-74
2022/04/23 14:38:55;;;;;;;;;;;18.60;95.00;;;;;;5072017;28;19920;-79
2022/04/23 14:41:22;;;;;;;;;;;18.70;97.00;;;;;;5073101;28;20283;-78
2022/04/23 14:43:49;;;;;;;;;;;18.70;96.20;;;;;;5073676;28;19913;-81
2022/04/23 14:46:14;;;;;;;;;;;18.60;98.10;;;;;;5071790;28;19916;-81
2022/04/23 14:48:40;;;;;;;;;;;18.90;96.20;;;;;;5073420;28;19918;-78
2022/04/23 14:53:50;;;;;;;;;;;18.50;95.70;;;;;;5073051;28;20013;-83
2022/04/23 14:56:15;;;;;;;;;;;18.70;96.80;;;;;;5071878;28;20426;-80
2022/04/23 14:58:41;;;;;;;;;;;18.90;96.10;;;;;;5068872;28;19920;-74
2022/04/23 15:01:07;;;;;;;;;;;18.80;94.10;;;;;;5075885;28;20011;-82
2022/04/23 15:03:35;;;;;;;;;;;18.70;95.40;;;;;;5083140;28;19913;-79
2022/04/23 15:06:00;;;;;;;;;;;18.30;94.90;;;;;;5060995;28;19916;-80
2022/04/23 15:08:26;;;;;;;;;;;18.00;96.00;;;;;;5075573;28;19916;-79